METAR AND TAF INFORMATION
METAR FOR EDLP
ADDS - METARS form results

(2307 UTC 22 May 2018)
Data provider http://aviationweather.gov/adds/metars/
 
METAR text: EDLP 222250Z VRB01KT CAVOK 14/13 Q1016
Conditions at: EDLP (PADERBORN/LIPPST, DE) observed 2250 UTC 22 May 2018
Temperature: 14.0°C (57°F)
Dewpoint: 13.0°C (55°F) [RH = 94%]
Pressure (altimeter): 30.00 inches Hg (1016.0 mb)
Winds: variable direction winds at 1 MPH (1 knots; 0.5 m/s)
Visibility: 6 or more miles (10+ km)
Ceiling: ceiling and visibility are OK
Clouds: unknown
Weather: no significant weather observed at this time

METAR text: EDLP 222220Z VRB03KT CAVOK 14/12 Q1016
Conditions at: EDLP (PADERBORN/LIPPST, DE) observed 2220 UTC 22 May 2018
Temperature: 14.0°C (57°F)
Dewpoint: 12.0°C (54°F) [RH = 88%]
Pressure (altimeter): 30.00 inches Hg (1016.0 mb)
Winds: variable direction winds at 3 MPH (3 knots; 1.6 m/s)
Visibility: 6 or more miles (10+ km)
Ceiling: ceiling and visibility are OK
Clouds: unknown
Weather: no significant weather observed at this time

Forecast for: EDLP (PADERBORN/LIPPST, DE)
Text: TAF EDLP 221700Z 2218/2318 VRB03KT 9999 SCT030
Forecast period: 1800 UTC 22 May 2018 to 0600 UTC 23 May 2018
Forecast type: FROM: standard forecast or significant change
Winds: variable direction winds at 3 MPH (3 knots; 1.6 m/s)
Visibility: 6 or more miles (10+ km)
Clouds: scattered clouds at 3000 feet AGL
Weather: no significant weather forecast for this period
Forecast for: EDLP (PADERBORN/LIPPST, DE)
Text: TAF EDLP 221700Z 2218/2318 VRB03KT 9999 SCT030
Forecast period: 1800 UTC 22 May 2018 to 0600 UTC 23 May 2018
Forecast type: FROM: standard forecast or significant change
Winds: variable direction winds at 3 MPH (3 knots; 1.6 m/s)
Visibility: 6 or more miles (10+ km)
Clouds: scattered clouds at 3000 feet AGL
Weather: no significant weather forecast for this period
Forecast for: EDLP (PADERBORN/LIPPST, DE)
Text: TAF EDLP 221700Z 2218/2318 VRB03KT 9999 SCT030
Forecast period: 1800 to 2000 UTC 22 May 2018
Forecast type: TEMPORARY: The following changes expected for less than half the time period
Winds: from the S (170 degrees) at 12 MPH (10 knots; 5.2 m/s)
Ceiling: 2500 feet AGL
Clouds: broken clouds at 2500 feet AGL
Weather: TSRA  (rain associated with thunderstorm(s))
Forecast for: EDLP (PADERBORN/LIPPST, DE)
Text: TAF EDLP 221700Z 2218/2318 VRB03KT 9999 SCT030
Forecast period: 1800 to 2000 UTC 22 May 2018
Forecast type: TEMPORARY: The following changes expected for less than half the time period
Winds: from the S (170 degrees) at 12 MPH (10 knots; 5.2 m/s)
Ceiling: 2500 feet AGL
Clouds: broken clouds at 2500 feet AGL
Weather: TSRA  (rain associated with thunderstorm(s))
Forecast for: EDLP (PADERBORN/LIPPST, DE)
Text: TAF EDLP 221700Z 2218/2318 VRB03KT 9999 SCT030
Forecast period: 0600 to 1800 UTC 23 May 2018
Forecast type: BECOMING: Conditions expected to become as follows by 0900 UTC 23 May 2018
Winds: from the ENE (70 degrees) at 12 MPH (10 knots; 5.2 m/s)
Visibility: 6 or more miles (10+ km)
Clouds: scattered clouds at 3000 feet AGL
Weather: no significant weather forecast for this period
Forecast for: EDLP (PADERBORN/LIPPST, DE)
Text: TAF EDLP 221700Z 2218/2318 VRB03KT 9999 SCT030
Forecast period: 0600 to 1800 UTC 23 May 2018
Forecast type: BECOMING: Conditions expected to become as follows by 0900 UTC 23 May 2018
Winds: from the ENE (70 degrees) at 12 MPH (10 knots; 5.2 m/s)
Visibility: 6 or more miles (10+ km)
Clouds: scattered clouds at 3000 feet AGL
Weather: no significant weather forecast for this period

 AIRPORT MAP

 RUNWAY INFORMATION
Runway 06 Runway length 7152 ft Runway width 148 ft
Runway elevation 699 ft Runway displaced threshold 0 ft Runway heading 57
Runway 24 Runway length 7152 ft Runway width 148 ft
Runway elevation 674 ft Runway displaced threshold 0 ft Runway heading 237

 AIRPORT FREQUENCIES
Type ATIS Name ATIS Frequency 125.725 MHZ
Type GND Name GND Frequency 121.925 MHZ
Type INFO Name LANGEN INF Frequency 129.875 MHZ
Type OPS Name DISPATCH Frequency 130.425 MHZ
Type RDR Name LANGEN RAD Frequency 125.225 MHZ
Type TWR Name TWR Frequency 133.375 MHZ

 AIRPORT NEAR NAVIGATION AIDS
Type NDB-DME Name Paderborn/Lippstadt Frequency 354 KHZ



Powered by Virtual Airlines Manager [v2.6.2]